createdAt,value
2022-07-27T00:00:52.529Z,15.90
2022-07-27T00:03:19.484Z,15.80
2022-07-27T00:05:46.463Z,15.80
2022-07-27T00:08:13.388Z,15.80
2022-07-27T00:10:40.411Z,15.80
2022-07-27T00:13:07.678Z,15.70
2022-07-27T00:15:35.061Z,15.70
2022-07-27T00:18:02.265Z,15.70
2022-07-27T00:20:29.930Z,15.70
2022-07-27T00:22:57.098Z,15.60
2022-07-27T00:25:25.075Z,15.60
2022-07-27T00:27:52.053Z,15.60
2022-07-27T00:30:19.244Z,15.60
2022-07-27T00:32:46.220Z,15.60
2022-07-27T00:35:13.121Z,15.50
2022-07-27T00:37:40.213Z,15.50
2022-07-27T00:40:08.112Z,15.40
2022-07-27T00:42:35.710Z,15.40
2022-07-27T00:45:04.179Z,15.40
2022-07-27T00:47:31.603Z,15.40
2022-07-27T00:49:59.316Z,15.40
2022-07-27T00:52:28.057Z,15.40
2022-07-27T00:54:55.088Z,15.40
2022-07-27T00:57:22.943Z,15.30
2022-07-27T00:59:49.922Z,15.40
2022-07-27T01:02:19.318Z,15.30
2022-07-27T01:04:47.408Z,15.30
2022-07-27T01:07:15.643Z,15.30
2022-07-27T01:09:58.290Z,15.20
2022-07-27T01:12:28.339Z,15.20
2022-07-27T01:14:57.984Z,15.30
2022-07-27T01:17:26.851Z,15.30
2022-07-27T01:19:54.254Z,15.30
2022-07-27T01:22:21.186Z,15.30
2022-07-27T01:24:49.670Z,15.30
2022-07-27T01:27:17.153Z,15.30
2022-07-27T01:29:44.221Z,15.30
2022-07-27T01:32:11.225Z,15.30
2022-07-27T01:34:38.138Z,15.30
2022-07-27T01:37:05.559Z,15.30
2022-07-27T01:39:33.337Z,15.20
2022-07-27T01:42:00.585Z,15.20
2022-07-27T01:44:27.697Z,15.20
2022-07-27T01:46:54.761Z,15.20
2022-07-27T01:49:22.280Z,15.20
2022-07-27T01:51:49.254Z,15.20
2022-07-27T01:54:16.166Z,15.20
2022-07-27T01:56:43.259Z,15.20
2022-07-27T01:59:16.644Z,15.20
2022-07-27T02:01:45.046Z,15.20
2022-07-27T02:04:12.416Z,15.20
2022-07-27T02:06:39.562Z,15.20
2022-07-27T02:09:06.681Z,15.10
2022-07-27T02:11:52.065Z,15.10
2022-07-27T02:14:21.182Z,15.10
2022-07-27T02:16:50.087Z,15.20
2022-07-27T02:19:18.377Z,15.10
2022-07-27T02:21:45.989Z,15.10
2022-07-27T02:24:13.049Z,15.10
2022-07-27T02:26:39.981Z,15.10
2022-07-27T02:29:07.058Z,15.10
2022-07-27T02:31:34.070Z,15.10
2022-07-27T02:34:00.986Z,15.10
2022-07-27T02:36:30.530Z,15.10
2022-07-27T02:38:58.574Z,15.10
2022-07-27T02:41:25.518Z,15.10
2022-07-27T02:43:52.377Z,15.10
2022-07-27T02:46:19.667Z,15.10
2022-07-27T02:48:46.746Z,15.00
2022-07-27T02:51:15.154Z,15.00
2022-07-27T02:53:42.647Z,15.00
2022-07-27T02:56:09.636Z,15.00
2022-07-27T02:58:36.941Z,15.00
2022-07-27T03:01:05.111Z,15.00
2022-07-27T03:03:36.191Z,15.00
2022-07-27T03:06:08.208Z,15.00
2022-07-27T03:08:36.434Z,15.00
2022-07-27T03:11:03.764Z,15.00
2022-07-27T03:13:30.792Z,15.00
2022-07-27T03:15:58.343Z,15.00
2022-07-27T03:18:25.458Z,15.10
2022-07-27T03:20:52.496Z,15.10
2022-07-27T03:23:19.927Z,15.10
2022-07-27T03:25:46.815Z,15.10
2022-07-27T03:28:13.682Z,15.10
2022-07-27T03:30:40.681Z,15.00
2022-07-27T03:33:07.767Z,15.00
2022-07-27T03:35:34.784Z,15.00
2022-07-27T03:38:01.688Z,14.90
2022-07-27T03:40:32.916Z,14.90
2022-07-27T03:43:00.423Z,14.90
2022-07-27T03:45:27.635Z,14.90
2022-07-27T03:47:54.775Z,14.90
2022-07-27T03:50:22.603Z,14.90
2022-07-27T03:52:50.319Z,15.00
2022-07-27T03:55:17.304Z,15.00
2022-07-27T03:57:44.171Z,15.00
2022-07-27T04:00:12.653Z,15.00
2022-07-27T04:02:40.367Z,15.00
2022-07-27T04:05:08.351Z,14.90
2022-07-27T04:07:35.239Z,14.90
2022-07-27T04:10:02.651Z,14.90
2022-07-27T04:12:30.701Z,14.90
2022-07-27T04:14:58.825Z,15.00
2022-07-27T04:17:54.737Z,15.00
2022-07-27T04:20:12.822Z,15.00
2022-07-27T04:22:41.542Z,15.00
2022-07-27T04:25:08.799Z,15.00
2022-07-27T04:27:35.668Z,15.00
2022-07-27T04:30:06.888Z,15.00
2022-07-27T04:32:36.069Z,15.10
2022-07-27T04:35:02.965Z,15.10
2022-07-27T04:37:30.242Z,15.10
2022-07-27T04:39:58.189Z,15.10
2022-07-27T04:42:25.261Z,15.10
2022-07-27T04:44:52.199Z,15.20
2022-07-27T04:47:19.175Z,15.20
2022-07-27T04:49:46.059Z,15.20
2022-07-27T04:52:16.019Z,15.20
2022-07-27T04:54:43.232Z,15.30
2022-07-27T04:57:10.303Z,15.20
2022-07-27T04:59:37.403Z,15.30
2022-07-27T05:02:04.539Z,15.30
2022-07-27T05:04:31.571Z,15.20
2022-07-27T05:06:58.538Z,15.20
2022-07-27T05:09:25.416Z,15.20
2022-07-27T05:11:52.460Z,15.30
2022-07-27T05:14:21.620Z,15.30
2022-07-27T05:16:49.496Z,15.30
2022-07-27T05:19:16.792Z,15.30
2022-07-27T05:21:43.938Z,15.40
2022-07-27T05:24:10.994Z,15.40
2022-07-27T05:26:38.219Z,15.40
2022-07-27T05:29:05.404Z,15.30
2022-07-27T05:31:32.355Z,15.30
2022-07-27T05:33:59.307Z,15.30
2022-07-27T05:36:26.979Z,15.30
2022-07-27T05:38:53.971Z,15.30
2022-07-27T05:41:25.398Z,15.30
2022-07-27T05:43:52.863Z,15.30
2022-07-27T05:46:19.966Z,15.20
2022-07-27T05:48:47.044Z,15.30
2022-07-27T05:51:13.956Z,15.30
2022-07-27T05:53:40.875Z,15.30
2022-07-27T05:56:11.448Z,15.30
2022-07-27T05:58:38.360Z,15.40
2022-07-27T06:01:05.329Z,15.40
2022-07-27T06:03:32.459Z,15.30
2022-07-27T06:06:18.296Z,15.30
2022-07-27T06:08:45.176Z,15.30
2022-07-27T06:11:12.136Z,15.30
2022-07-27T06:13:41.822Z,15.30
2022-07-27T06:16:10.593Z,15.20
2022-07-27T06:18:37.872Z,15.20
2022-07-27T06:21:05.117Z,15.20
2022-07-27T06:23:32.162Z,15.30
2022-07-27T06:25:59.326Z,15.30
2022-07-27T06:28:26.740Z,15.40
2022-07-27T06:30:53.661Z,15.50
2022-07-27T06:33:27.760Z,15.50
2022-07-27T06:35:56.813Z,15.60
2022-07-27T06:38:24.640Z,15.70
2022-07-27T06:40:55.100Z,15.70
2022-07-27T06:43:22.477Z,15.80
2022-07-27T06:45:49.762Z,15.80
2022-07-27T06:48:17.341Z,15.80
2022-07-27T06:50:44.619Z,15.80
2022-07-27T06:53:11.504Z,15.80
2022-07-27T06:55:38.648Z,15.80
2022-07-27T06:58:05.668Z,15.80
2022-07-27T07:00:33.098Z,15.90
2022-07-27T07:03:02.825Z,16.00
2022-07-27T07:05:30.680Z,16.10
2022-07-27T07:07:58.228Z,16.10
2022-07-27T07:10:26.453Z,16.10
2022-07-27T07:12:57.861Z,16.00
2022-07-27T07:15:26.366Z,16.10
2022-07-27T07:17:54.603Z,16.10
2022-07-27T07:20:21.766Z,16.10
2022-07-27T07:22:48.659Z,16.00
2022-07-27T07:25:15.618Z,16.10
2022-07-27T07:27:42.860Z,16.10
2022-07-27T07:30:10.056Z,16.10
2022-07-27T07:32:36.914Z,16.20
2022-07-27T07:35:04.648Z,16.30
2022-07-27T07:37:34.112Z,16.30
2022-07-27T07:40:18.608Z,16.30
2022-07-27T07:42:58.129Z,16.30
2022-07-27T07:45:25.163Z,16.10
2022-07-27T07:47:53.133Z,16.10
2022-07-27T07:50:20.446Z,16.20
2022-07-27T07:52:52.324Z,16.30
2022-07-27T07:55:20.530Z,16.30
2022-07-27T07:57:48.603Z,16.30
2022-07-27T08:00:18.562Z,16.20
2022-07-27T08:02:57.790Z,16.20
2022-07-27T08:05:26.003Z,16.20
2022-07-27T08:07:54.640Z,16.20
2022-07-27T08:10:22.449Z,16.20
2022-07-27T08:12:52.932Z,16.30
2022-07-27T08:15:20.051Z,16.30
2022-07-27T08:17:47.028Z,16.40
2022-07-27T08:20:16.021Z,16.50
2022-07-27T08:22:43.163Z,16.60
2022-07-27T08:25:11.575Z,16.80
2022-07-27T08:27:40.833Z,16.90
2022-07-27T08:30:10.520Z,17.00
2022-07-27T08:32:59.783Z,16.90
2022-07-27T08:35:27.401Z,16.70
2022-07-27T08:37:55.353Z,16.50
2022-07-27T08:43:10.479Z,16.30
2022-07-27T08:45:37.819Z,16.20
2022-07-27T08:48:05.383Z,16.20
2022-07-27T08:50:34.914Z,16.30
2022-07-27T08:53:13.837Z,16.30
2022-07-27T08:55:45.641Z,16.40
2022-07-27T08:58:13.633Z,16.50
2022-07-27T09:00:43.166Z,16.60
2022-07-27T09:03:18.891Z,16.60
2022-07-27T09:05:51.331Z,16.50
2022-07-27T09:08:24.655Z,16.60
2022-07-27T09:10:54.636Z,16.60
2022-07-27T09:13:23.468Z,16.60
2022-07-27T09:16:16.877Z,16.70
2022-07-27T09:18:40.421Z,16.60
2022-07-27T09:21:11.516Z,16.70
2022-07-27T09:23:44.209Z,16.80
2022-07-27T09:26:34.070Z,16.80
2022-07-27T09:29:06.220Z,16.80
2022-07-27T09:31:41.810Z,16.90
2022-07-27T09:34:09.548Z,17.20
2022-07-27T09:36:51.017Z,17.50
2022-07-27T09:39:23.010Z,17.70
2022-07-27T09:41:57.451Z,17.70
2022-07-27T09:44:42.280Z,17.80
2022-07-27T09:47:31.340Z,18.00
2022-07-27T09:50:19.831Z,18.10
2022-07-27T09:52:47.376Z,18.20
2022-07-27T09:55:14.393Z,18.00
2022-07-27T09:57:58.578Z,18.00
2022-07-27T10:00:26.737Z,17.90
2022-07-27T10:02:54.975Z,18.00
2022-07-27T10:05:23.397Z,18.00
2022-07-27T10:07:53.328Z,17.90
2022-07-27T10:10:21.351Z,17.80
2022-07-27T10:12:54.125Z,17.80
2022-07-27T10:15:23.636Z,17.80
2022-07-27T10:18:01.626Z,17.90
2022-07-27T10:20:31.838Z,18.20
2022-07-27T10:22:59.373Z,18.40
2022-07-27T10:25:32.506Z,18.50
2022-07-27T10:28:17.667Z,18.60
2022-07-27T10:30:48.155Z,18.60
2022-07-27T10:33:48.999Z,18.30
2022-07-27T10:36:52.269Z,18.40
2022-07-27T10:39:33.825Z,18.50
2022-07-27T10:42:24.516Z,18.60
2022-07-27T10:45:18.230Z,18.70
2022-07-27T10:47:48.389Z,18.50
2022-07-27T10:50:18.447Z,18.30
2022-07-27T10:52:52.619Z,18.30
2022-07-27T10:55:31.467Z,18.60
2022-07-27T10:58:21.316Z,18.70
2022-07-27T11:00:55.013Z,18.60
2022-07-27T11:03:23.296Z,18.40
2022-07-27T11:06:08.862Z,18.40
2022-07-27T11:08:48.476Z,18.50
2022-07-27T11:11:25.053Z,18.60
2022-07-27T11:13:57.816Z,18.70
2022-07-27T11:16:27.451Z,18.70
2022-07-27T11:19:04.231Z,18.70
2022-07-27T11:21:36.596Z,18.70
2022-07-27T11:24:11.063Z,18.80
2022-07-27T11:26:49.488Z,18.80
2022-07-27T11:29:18.261Z,18.80
2022-07-27T11:31:56.975Z,18.90
2022-07-27T11:34:36.607Z,19.20
2022-07-27T11:37:11.833Z,19.00
2022-07-27T11:42:39.543Z,19.30
2022-07-27T11:45:07.393Z,19.40
2022-07-27T11:47:34.341Z,19.40
2022-07-27T11:50:07.305Z,19.50
2022-07-27T11:52:34.600Z,19.40
2022-07-27T11:55:01.488Z,19.20
2022-07-27T11:57:32.920Z,19.30
2022-07-27T11:59:59.834Z,19.40
2022-07-27T12:02:27.316Z,19.40
2022-07-27T12:05:00.529Z,19.30
2022-07-27T12:07:31.942Z,19.30
2022-07-27T12:10:02.160Z,19.40
2022-07-27T12:12:30.032Z,19.20
2022-07-27T12:14:58.032Z,19.20
2022-07-27T12:17:36.218Z,19.10
2022-07-27T12:20:11.841Z,19.10
2022-07-27T12:22:40.676Z,19.10
2022-07-27T12:25:17.370Z,19.10
2022-07-27T12:27:58.547Z,19.20
2022-07-27T12:30:34.633Z,19.30
2022-07-27T12:33:03.747Z,19.30
2022-07-27T12:35:37.899Z,19.50
2022-07-27T12:38:09.143Z,19.60
2022-07-27T12:40:47.109Z,19.60
2022-07-27T12:43:19.338Z,19.70
2022-07-27T12:45:48.649Z,19.70
2022-07-27T12:48:19.330Z,19.60
2022-07-27T12:50:48.707Z,19.50
2022-07-27T12:53:17.057Z,19.60
2022-07-27T12:55:45.070Z,19.70
2022-07-27T12:58:14.316Z,19.70
2022-07-27T13:00:41.719Z,19.70
2022-07-27T13:03:08.888Z,19.50
2022-07-27T13:05:36.076Z,19.40
2022-07-27T13:08:04.754Z,19.40
2022-07-27T13:10:32.198Z,19.40
2022-07-27T13:12:59.278Z,19.40
2022-07-27T13:15:26.707Z,19.40
2022-07-27T13:17:53.654Z,19.50
2022-07-27T13:20:20.902Z,19.50
2022-07-27T13:22:48.106Z,19.50
2022-07-27T13:25:17.191Z,19.50
2022-07-27T13:27:48.586Z,19.30
2022-07-27T13:30:17.560Z,19.30
2022-07-27T13:32:46.659Z,19.40
2022-07-27T13:35:16.511Z,19.40
2022-07-27T13:37:44.066Z,19.40
2022-07-27T13:40:11.294Z,19.30
2022-07-27T13:42:38.420Z,19.20
2022-07-27T13:45:10.408Z,19.30
2022-07-27T13:47:39.865Z,19.40
2022-07-27T13:50:13.674Z,19.40
2022-07-27T13:52:45.007Z,19.60
2022-07-27T13:55:13.626Z,19.80
2022-07-27T13:57:40.494Z,20.20
2022-07-27T14:00:08.146Z,20.40
2022-07-27T14:02:35.157Z,20.50
2022-07-27T14:05:06.008Z,20.50
2022-07-27T14:07:33.787Z,20.70
2022-07-27T14:10:19.514Z,20.90
2022-07-27T14:12:46.549Z,20.70
2022-07-27T14:15:13.529Z,20.50
2022-07-27T14:17:40.394Z,20.50
2022-07-27T14:20:08.657Z,20.40
2022-07-27T14:22:35.558Z,20.20
2022-07-27T14:25:02.418Z,19.90
2022-07-27T14:27:33.718Z,19.70
2022-07-27T14:30:06.731Z,19.60
2022-07-27T14:32:34.408Z,19.40
2022-07-27T14:35:01.465Z,19.40
2022-07-27T14:37:28.392Z,19.40
2022-07-27T14:39:55.243Z,19.40
2022-07-27T14:42:23.954Z,19.40
2022-07-27T14:44:51.238Z,19.40
2022-07-27T14:47:19.006Z,19.30
2022-07-27T14:49:46.205Z,19.20
2022-07-27T14:52:13.630Z,19.10
2022-07-27T14:54:41.559Z,19.10
2022-07-27T14:57:08.712Z,19.00
2022-07-27T14:59:36.219Z,19.10
2022-07-27T15:02:03.732Z,19.10
2022-07-27T15:04:30.860Z,19.10
2022-07-27T15:06:58.574Z,19.10
2022-07-27T15:09:28.461Z,19.10
2022-07-27T15:11:55.400Z,19.20
2022-07-27T15:14:23.172Z,19.40
2022-07-27T15:16:51.363Z,19.50
2022-07-27T15:19:18.310Z,19.50
2022-07-27T15:21:47.053Z,19.70
2022-07-27T15:24:14.209Z,19.70
2022-07-27T15:26:41.404Z,19.90
2022-07-27T15:29:10.186Z,19.90
2022-07-27T15:31:42.412Z,20.00
2022-07-27T15:34:09.343Z,20.10
2022-07-27T15:36:40.552Z,20.00
2022-07-27T15:39:11.066Z,20.00
2022-07-27T15:41:39.335Z,19.90
2022-07-27T15:44:06.740Z,19.90
2022-07-27T15:46:33.960Z,19.90
2022-07-27T15:49:01.690Z,19.80
2022-07-27T15:51:29.424Z,19.70
2022-07-27T15:53:57.248Z,19.60
2022-07-27T15:56:24.994Z,19.60
2022-07-27T15:58:51.986Z,19.50
2022-07-27T16:01:21.163Z,19.40
2022-07-27T16:03:49.703Z,19.30
2022-07-27T16:06:19.409Z,19.20
2022-07-27T16:08:47.487Z,19.10
2022-07-27T16:11:14.732Z,19.00
2022-07-27T16:13:42.034Z,18.90
2022-07-27T16:16:27.471Z,18.80
2022-07-27T16:18:55.525Z,18.80
2022-07-27T16:21:23.391Z,18.70
2022-07-27T16:23:52.150Z,18.50
2022-07-27T16:26:19.094Z,18.60
2022-07-27T16:28:48.285Z,18.50
2022-07-27T16:31:18.815Z,18.50
2022-07-27T16:33:46.966Z,18.50
2022-07-27T16:36:14.065Z,18.50
2022-07-27T16:38:49.585Z,18.50
2022-07-27T16:41:19.011Z,18.40
2022-07-27T16:43:46.160Z,18.40
2022-07-27T16:46:13.337Z,18.40
2022-07-27T16:48:42.704Z,18.30
2022-07-27T16:51:11.791Z,18.30
2022-07-27T16:53:40.370Z,18.20
2022-07-27T16:56:07.343Z,18.20
2022-07-27T16:58:34.464Z,18.10
2022-07-27T17:01:02.002Z,18.10
2022-07-27T17:03:28.935Z,18.10
2022-07-27T17:05:55.824Z,18.00
2022-07-27T17:08:26.057Z,18.00
2022-07-27T17:10:55.405Z,18.00
2022-07-27T17:13:22.437Z,17.90
2022-07-27T17:16:00.911Z,17.90
2022-07-27T17:18:28.100Z,17.90
2022-07-27T17:20:55.215Z,17.90
2022-07-27T17:23:22.573Z,17.80
2022-07-27T17:25:49.651Z,17.80
2022-07-27T17:28:16.907Z,17.80
2022-07-27T17:30:43.899Z,17.80
2022-07-27T17:33:11.132Z,17.80
2022-07-27T17:35:38.069Z,17.70
2022-07-27T17:38:06.475Z,17.70
2022-07-27T17:40:34.733Z,17.60
2022-07-27T17:43:02.054Z,17.60
2022-07-27T17:45:28.982Z,17.70
2022-07-27T17:47:55.970Z,17.70
2022-07-27T17:50:23.163Z,17.70
2022-07-27T17:52:50.199Z,17.60
2022-07-27T17:55:17.107Z,17.60
2022-07-27T17:57:44.577Z,17.60
2022-07-27T18:00:11.965Z,17.50
2022-07-27T18:02:38.836Z,17.50
2022-07-27T18:05:06.154Z,17.50
2022-07-27T18:07:39.071Z,17.50
2022-07-27T18:10:08.216Z,17.50
2022-07-27T18:12:35.745Z,17.50
2022-07-27T18:15:21.730Z,17.40
2022-07-27T18:17:48.598Z,17.50
2022-07-27T18:20:15.868Z,17.50
2022-07-27T18:22:42.789Z,17.40
2022-07-27T18:25:10.365Z,17.50
2022-07-27T18:27:37.661Z,17.40
2022-07-27T18:30:05.976Z,17.30
2022-07-27T18:32:33.568Z,17.30
2022-07-27T18:35:01.776Z,17.30
2022-07-27T18:37:28.787Z,17.30
2022-07-27T18:39:55.870Z,17.30
2022-07-27T18:42:23.322Z,17.20
2022-07-27T18:44:50.260Z,17.20
2022-07-27T18:47:17.130Z,17.20
2022-07-27T18:49:43.971Z,17.20
2022-07-27T18:52:10.976Z,17.10
2022-07-27T18:54:37.928Z,17.10
2022-07-27T18:57:05.238Z,17.10
2022-07-27T18:59:32.197Z,17.10
2022-07-27T19:02:00.678Z,17.10
2022-07-27T19:04:27.654Z,17.00
2022-07-27T19:06:54.554Z,17.00
2022-07-27T19:09:21.638Z,17.00
2022-07-27T19:11:48.590Z,16.90
2022-07-27T19:14:15.499Z,16.90
2022-07-27T19:16:42.455Z,16.80
2022-07-27T19:19:14.883Z,16.90
2022-07-27T19:21:43.940Z,16.90
2022-07-27T19:24:11.700Z,16.90
2022-07-27T19:26:38.624Z,16.90
2022-07-27T19:29:05.628Z,16.90
2022-07-27T19:31:34.370Z,16.90
2022-07-27T19:34:01.303Z,16.90
2022-07-27T19:36:28.265Z,16.90
2022-07-27T19:38:55.435Z,16.90
2022-07-27T19:41:22.358Z,16.80
2022-07-27T19:43:49.353Z,16.80
2022-07-27T19:46:16.360Z,16.70
2022-07-27T19:48:43.371Z,16.70
2022-07-27T19:51:10.919Z,16.70
2022-07-27T19:53:39.226Z,16.60
2022-07-27T19:56:06.090Z,16.60
2022-07-27T19:58:32.986Z,16.50
2022-07-27T20:01:00.027Z,16.50
2022-07-27T20:03:27.311Z,16.50
2022-07-27T20:05:54.265Z,16.50
2022-07-27T20:08:21.715Z,16.50
2022-07-27T20:10:48.915Z,16.40
2022-07-27T20:13:15.820Z,16.40
2022-07-27T20:15:43.580Z,16.40
2022-07-27T20:18:10.548Z,16.40
2022-07-27T20:20:37.657Z,16.40
2022-07-27T20:23:04.620Z,16.20
2022-07-27T20:25:31.557Z,16.10
2022-07-27T20:27:59.032Z,16.10
2022-07-27T20:30:26.529Z,16.10
2022-07-27T20:32:53.472Z,16.10
2022-07-27T20:35:20.437Z,16.00
2022-07-27T20:37:47.757Z,16.00
2022-07-27T20:40:15.626Z,16.00
2022-07-27T20:42:43.455Z,16.00
2022-07-27T20:45:14.280Z,15.90
2022-07-27T20:47:42.442Z,15.90
2022-07-27T20:50:12.402Z,15.90
2022-07-27T20:52:40.460Z,15.90
2022-07-27T20:55:08.627Z,15.90
2022-07-27T20:57:35.967Z,15.90
2022-07-27T21:00:03.754Z,15.90
2022-07-27T21:02:30.709Z,15.90
2022-07-27T21:04:58.015Z,15.90
2022-07-27T21:07:25.961Z,15.90
2022-07-27T21:09:52.934Z,15.80
2022-07-27T21:12:19.880Z,15.80
2022-07-27T21:14:46.755Z,15.80
2022-07-27T21:17:13.629Z,15.80
2022-07-27T21:19:40.692Z,15.80
2022-07-27T21:22:07.912Z,15.80
2022-07-27T21:24:34.765Z,15.90
2022-07-27T21:27:04.728Z,15.90
2022-07-27T21:29:32.395Z,15.80
2022-07-27T21:31:59.303Z,15.70
2022-07-27T21:34:26.201Z,15.70
2022-07-27T21:36:53.519Z,15.60
2022-07-27T21:39:20.888Z,15.70
2022-07-27T21:41:47.781Z,15.60
2022-07-27T21:44:15.598Z,15.50
2022-07-27T21:46:43.112Z,15.50
2022-07-27T21:49:10.578Z,15.50
2022-07-27T21:51:37.511Z,15.40
2022-07-27T21:54:04.627Z,15.40
2022-07-27T21:56:31.460Z,15.40
2022-07-27T21:59:08.917Z,15.40
2022-07-27T22:01:35.905Z,15.30
2022-07-27T22:04:03.033Z,15.30
2022-07-27T22:06:29.922Z,15.30
2022-07-27T22:08:56.834Z,15.30
2022-07-27T22:11:23.674Z,15.30
2022-07-27T22:13:50.521Z,15.30
2022-07-27T22:16:17.420Z,15.20
2022-07-27T22:18:44.293Z,15.20
2022-07-27T22:21:11.256Z,15.20
2022-07-27T22:23:38.355Z,15.20
2022-07-27T22:26:05.755Z,15.20
2022-07-27T22:28:32.639Z,15.20
2022-07-27T22:31:21.323Z,15.10
2022-07-27T22:33:46.505Z,15.10
2022-07-27T22:36:13.443Z,15.10
2022-07-27T22:38:40.309Z,15.10
2022-07-27T22:41:07.969Z,15.10
2022-07-27T22:43:34.998Z,15.10
2022-07-27T22:46:05.555Z,15.10
2022-07-27T22:48:33.403Z,15.00
2022-07-27T22:51:00.387Z,15.00
2022-07-27T22:53:27.255Z,15.00
2022-07-27T22:55:54.194Z,15.00
2022-07-27T22:58:21.739Z,15.00
2022-07-27T23:00:49.084Z,15.00
2022-07-27T23:03:16.108Z,14.90
2022-07-27T23:05:43.130Z,14.90
2022-07-27T23:08:10.057Z,14.80
2022-07-27T23:10:45.714Z,14.80
2022-07-27T23:13:13.952Z,14.80
2022-07-27T23:15:41.272Z,14.80
2022-07-27T23:18:08.959Z,14.80
2022-07-27T23:20:36.443Z,14.70
2022-07-27T23:23:04.251Z,14.70
2022-07-27T23:25:42.458Z,14.70
2022-07-27T23:32:36.872Z,14.70
2022-07-27T23:35:04.342Z,14.70
2022-07-27T23:37:31.285Z,14.70
2022-07-27T23:39:58.147Z,14.70
2022-07-27T23:42:25.638Z,14.70
2022-07-27T23:44:54.201Z,14.70
2022-07-27T23:47:21.801Z,14.70
2022-07-27T23:49:48.885Z,14.70
2022-07-27T23:52:15.998Z,14.70
2022-07-27T23:54:42.870Z,14.80
2022-07-27T23:57:09.837Z,14.80
2022-07-27T23:59:36.726Z,14.80
